sensor_id;sensor_type;location;lat;lon;timestamp;pressure;altitude;pressure_sealevel;temperature;humidity
55687;BME280;41911;52.362;4.978;2023-03-15T00:01:24;101126.28;;;1.36;53.03
55687;BME280;41911;52.362;4.978;2023-03-15T00:01:56;101124.42;;;1.97;53.45
55687;BME280;41911;52.362;4.978;2023-03-15T00:02:26;101121.96;;;1.96;53.07
55687;BME280;41911;52.362;4.978;2023-03-15T00:02:57;101121.18;;;2.65;52.47
55687;BME280;41911;52.362;4.978;2023-03-15T00:03:28;101122.13;;;2.34;52.10
55687;BME280;41911;52.362;4.978;2023-03-15T00:03:59;101125.34;;;2.12;52.48
55687;BME280;41911;52.362;4.978;2023-03-15T00:04:30;101123.05;;;2.59;52.81
55687;BME280;41911;52.362;4.978;2023-03-15T00:05:02;101126.54;;;2.62;52.83
55687;BME280;41911;52.362;4.978;2023-03-15T00:05:33;101126.46;;;1.96;53.33
55687;BME280;41911;52.362;4.978;2023-03-15T00:06:05;101132.56;;;1.89;53.79
55687;BME280;41911;52.362;4.978;2023-03-15T00:06:36;101129.68;;;1.84;54.23
55687;BME280;41911;52.362;4.978;2023-03-15T00:07:07;101130.50;;;1.86;54.41
55687;BME280;41911;52.362;4.978;2023-03-15T00:07:38;101131.03;;;1.70;54.21
55687;BME280;41911;52.362;4.978;2023-03-15T00:08:10;101132.04;;;1.67;54.41
55687;BME280;41911;52.362;4.978;2023-03-15T00:08:41;101133.90;;;1.99;53.94
55687;BME280;41911;52.362;4.978;2023-03-15T00:09:12;101134.61;;;2.12;53.75
55687;BME280;41911;52.362;4.978;2023-03-15T00:09:43;101136.89;;;1.77;54.28
55687;BME280;41911;52.362;4.978;2023-03-15T00:10:15;101135.78;;;2.08;53.96
55687;BME280;41911;52.362;4.978;2023-03-15T00:10:47;101135.93;;;2.17;53.87
55687;BME280;41911;52.362;4.978;2023-03-15T00:11:18;101142.12;;;2.21;53.64
55687;BME280;41911;52.362;4.978;2023-03-15T00:11:49;101134.82;;;2.39;53.43
55687;BME280;41911;52.362;4.978;2023-03-15T00:12:20;101136.74;;;2.27;53.31
55687;BME280;41911;52.362;4.978;2023-03-15T00:12:51;101139.70;;;1.95;53.52
55687;BME280;41911;52.362;4.978;2023-03-15T00:13:22;101139.32;;;2.54;53.22
55687;BME280;41911;52.362;4.978;2023-03-15T00:13:53;101143.41;;;2.48;53.27
55687;BME280;41911;52.362;4.978;2023-03-15T00:14:24;101144.73;;;2.29;53.20
55687;BME280;41911;52.362;4.978;2023-03-15T00:14:55;101142.42;;;2.48;53.19
55687;BME280;41911;52.362;4.978;2023-03-15T00:15:26;101144.63;;;2.65;52.96
55687;BME280;41911;52.362;4.978;2023-03-15T00:15:58;101144.89;;;2.44;52.79
55687;BME280;41911;52.362;4.978;2023-03-15T00:16:30;101145.18;;;2.51;52.69
55687;BME280;41911;52.362;4.978;2023-03-15T00:17:01;101144.69;;;2.82;52.25
55687;BME280;41911;52.362;4.978;2023-03-15T00:17:32;101146.77;;;2.88;51.99
55687;BME280;41911;52.362;4.978;2023-03-15T00:26:44;101155.32;;;3.17;51.82
55687;BME280;41911;52.362;4.978;2023-03-15T00:28:35;101157.88;;;2.69;52.35
55687;BME280;41911;52.362;4.978;2023-03-15T00:29:06;101154.70;;;2.74;52.21
55687;BME280;41911;52.362;4.978;2023-03-15T00:29:39;101160.57;;;2.94;52.09
55687;BME280;41911;52.362;4.978;2023-03-15T00:30:10;101161.24;;;2.70;51.87
55687;BME280;41911;52.362;4.978;2023-03-15T00:30:42;101162.94;;;2.56;52.18
55687;BME280;41911;52.362;4.978;2023-03-15T00:31:15;101162.23;;;2.18;52.52
55687;BME280;41911;52.362;4.978;2023-03-15T00:31:47;101161.58;;;2.57;52.51
55687;BME280;41911;52.362;4.978;2023-03-15T00:32:18;101160.34;;;2.56;52.71
55687;BME280;41911;52.362;4.978;2023-03-15T00:32:51;101163.66;;;2.76;52.36
55687;BME280;41911;52.362;4.978;2023-03-15T00:33:22;101160.95;;;2.76;52.01
55687;BME280;41911;52.362;4.978;2023-03-15T00:33:53;101161.80;;;2.74;51.91
55687;BME280;41911;52.362;4.978;2023-03-15T00:34:24;101162.80;;;2.94;51.56
55687;BME280;41911;52.362;4.978;2023-03-15T00:34:55;101162.87;;;2.84;51.65
55687;BME280;41911;52.362;4.978;2023-03-15T00:35:26;101164.05;;;2.90;51.58
55687;BME280;41911;52.362;4.978;2023-03-15T00:35:57;101165.00;;;2.84;51.55
55687;BME280;41911;52.362;4.978;2023-03-15T00:36:28;101162.41;;;2.69;51.82
55687;BME280;41911;52.362;4.978;2023-03-15T00:37:01;101165.67;;;2.69;51.86
55687;BME280;41911;52.362;4.978;2023-03-15T00:37:32;101163.03;;;2.76;51.78
55687;BME280;41911;52.362;4.978;2023-03-15T00:38:03;101164.42;;;2.88;51.61
55687;BME280;41911;52.362;4.978;2023-03-15T00:38:35;101164.92;;;2.90;51.54
55687;BME280;41911;52.362;4.978;2023-03-15T00:39:12;101166.80;;;2.84;51.99
55687;BME280;41911;52.362;4.978;2023-03-15T00:39:44;101165.83;;;2.74;51.79
55687;BME280;41911;52.362;4.978;2023-03-15T00:40:16;101163.48;;;2.87;51.63
55687;BME280;41911;52.362;4.978;2023-03-15T00:40:47;101165.67;;;3.01;51.42
55687;BME280;41911;52.362;4.978;2023-03-15T00:41:19;101164.73;;;3.00;51.39
55687;BME280;41911;52.362;4.978;2023-03-15T00:41:50;101165.09;;;3.13;51.15
55687;BME280;41911;52.362;4.978;2023-03-15T00:42:21;101165.47;;;3.10;50.98
55687;BME280;41911;52.362;4.978;2023-03-15T00:42:52;101168.67;;;3.15;51.05
55687;BME280;41911;52.362;4.978;2023-03-15T00:43:24;101165.61;;;2.78;51.56
55687;BME280;41911;52.362;4.978;2023-03-15T00:44:00;101169.51;;;3.06;51.14
55687;BME280;41911;52.362;4.978;2023-03-15T00:44:31;101167.06;;;2.87;51.02
55687;BME280;41911;52.362;4.978;2023-03-15T00:45:03;101168.44;;;3.15;50.82
55687;BME280;41911;52.362;4.978;2023-03-15T00:45:35;101164.57;;;3.12;50.81
55687;BME280;41911;52.362;4.978;2023-03-15T00:46:06;101166.74;;;3.18;50.75
55687;BME280;41911;52.362;4.978;2023-03-15T00:46:37;101165.08;;;3.26;50.57
55687;BME280;41911;52.362;4.978;2023-03-15T00:47:09;101169.03;;;3.23;50.54
55687;BME280;41911;52.362;4.978;2023-03-15T00:47:40;101165.27;;;3.43;50.44
55687;BME280;41911;52.362;4.978;2023-03-15T00:48:11;101167.93;;;3.35;50.31
55687;BME280;41911;52.362;4.978;2023-03-15T00:48:42;101169.13;;;3.01;50.23
55687;BME280;41911;52.362;4.978;2023-03-15T00:49:13;101169.55;;;3.15;50.70
55687;BME280;41911;52.362;4.978;2023-03-15T00:49:44;101171.31;;;3.15;50.68
55687;BME280;41911;52.362;4.978;2023-03-15T00:50:15;101171.22;;;3.21;50.62
55687;BME280;41911;52.362;4.978;2023-03-15T00:50:46;101171.15;;;3.56;50.51
55687;BME280;41911;52.362;4.978;2023-03-15T00:51:19;101173.12;;;3.25;50.49
55687;BME280;41911;52.362;4.978;2023-03-15T00:51:53;101173.03;;;3.22;50.52
55687;BME280;41911;52.362;4.978;2023-03-15T00:52:24;101173.42;;;3.17;50.29
55687;BME280;41911;52.362;4.978;2023-03-15T00:52:55;101173.41;;;3.18;50.55
55687;BME280;41911;52.362;4.978;2023-03-15T00:53:26;101175.96;;;3.30;50.34
55687;BME280;41911;52.362;4.978;2023-03-15T00:53:57;101176.51;;;3.21;50.11
55687;BME280;41911;52.362;4.978;2023-03-15T00:54:28;101179.07;;;3.48;50.08
55687;BME280;41911;52.362;4.978;2023-03-15T00:55:00;101178.43;;;3.54;49.82
55687;BME280;41911;52.362;4.978;2023-03-15T00:55:31;101179.81;;;3.40;49.91
55687;BME280;41911;52.362;4.978;2023-03-15T00:56:04;101178.79;;;3.12;50.70
55687;BME280;41911;52.362;4.978;2023-03-15T00:56:36;101180.36;;;3.04;50.56
55687;BME280;41911;52.362;4.978;2023-03-15T00:57:07;101182.67;;;3.17;50.43
55687;BME280;41911;52.362;4.978;2023-03-15T00:57:38;101184.24;;;3.22;50.32
55687;BME280;41911;52.362;4.978;2023-03-15T00:58:09;101185.38;;;3.07;50.55
55687;BME280;41911;52.362;4.978;2023-03-15T00:58:40;101185.91;;;3.03;50.60
55687;BME280;41911;52.362;4.978;2023-03-15T00:59:11;101186.51;;;3.10;50.57
55687;BME280;41911;52.362;4.978;2023-03-15T00:59:42;101187.13;;;3.34;50.03
55687;BME280;41911;52.362;4.978;2023-03-15T01:00:17;101189.18;;;3.37;49.96
55687;BME280;41911;52.362;4.978;2023-03-15T01:00:48;101187.66;;;2.89;50.39
55687;BME280;41911;52.362;4.978;2023-03-15T01:01:22;101190.52;;;3.49;50.24
55687;BME280;41911;52.362;4.978;2023-03-15T01:01:53;101193.66;;;3.27;50.10
55687;BME280;41911;52.362;4.978;2023-03-15T01:02:24;101194.10;;;3.29;50.14
55687;BME280;41911;52.362;4.978;2023-03-15T01:02:55;101195.68;;;3.44;49.92
55687;BME280;41911;52.362;4.978;2023-03-15T01:03:26;101197.69;;;3.38;49.83
55687;BME280;41911;52.362;4.978;2023-03-15T01:03:57;101195.97;;;3.28;49.92
55687;BME280;41911;52.362;4.978;2023-03-15T01:04:28;101197.83;;;2.76;49.93
55687;BME280;41911;52.362;4.978;2023-03-15T01:04:59;101200.59;;;3.46;49.83
55687;BME280;41911;52.362;4.978;2023-03-15T01:05:30;101199.92;;;3.50;49.76
55687;BME280;41911;52.362;4.978;2023-03-15T01:06:05;101201.30;;;3.55;49.82
55687;BME280;41911;52.362;4.978;2023-03-15T01:06:37;101203.81;;;3.07;50.11
55687;BME280;41911;52.362;4.978;2023-03-15T01:07:08;101204.39;;;3.44;50.08
55687;BME280;41911;52.362;4.978;2023-03-15T01:07:39;101203.72;;;3.38;49.79
55687;BME280;41911;52.362;4.978;2023-03-15T01:08:10;101201.67;;;3.72;49.69
55687;BME280;41911;52.362;4.978;2023-03-15T01:08:41;101203.35;;;3.48;49.70
55687;BME280;41911;52.362;4.978;2023-03-15T01:09:12;101204.77;;;3.39;49.70
55687;BME280;41911;52.362;4.978;2023-03-15T01:09:43;101204.06;;;3.27;49.75
55687;BME280;41911;52.362;4.978;2023-03-15T01:10:15;101202.50;;;3.30;49.48
55687;BME280;41911;52.362;4.978;2023-03-15T01:10:46;101202.62;;;3.42;49.37
55687;BME280;41911;52.362;4.978;2023-03-15T01:11:19;101202.96;;;3.71;49.45
55687;BME280;41911;52.362;4.978;2023-03-15T01:11:51;101204.31;;;3.18;49.58
55687;BME280;41911;52.362;4.978;2023-03-15T01:12:22;101206.37;;;3.53;49.51
55687;BME280;41911;52.362;4.978;2023-03-15T01:12:53;101206.04;;;3.41;49.48
55687;BME280;41911;52.362;4.978;2023-03-15T01:13:24;101208.07;;;3.72;49.41
55687;BME280;41911;52.362;4.978;2023-03-15T01:13:57;101208.95;;;3.02;49.56
55687;BME280;41911;52.362;4.978;2023-03-15T01:14:28;101207.27;;;3.41;49.87
55687;BME280;41911;52.362;4.978;2023-03-15T01:15:00;101208.44;;;3.41;49.87
55687;BME280;41911;52.362;4.978;2023-03-15T01:15:31;101210.29;;;3.48;49.63
55687;BME280;41911;52.362;4.978;2023-03-15T01:16:02;101209.83;;;3.74;49.72
55687;BME280;41911;52.362;4.978;2023-03-15T01:16:33;101212.19;;;2.99;49.80
55687;BME280;41911;52.362;4.978;2023-03-15T01:17:05;101212.87;;;3.07;49.83
55687;BME280;41911;52.362;4.978;2023-03-15T01:17:36;101213.23;;;3.67;49.72
55687;BME280;41911;52.362;4.978;2023-03-15T01:18:06;101212.99;;;3.42;49.70
55687;BME280;41911;52.362;4.978;2023-03-15T01:18:38;101212.85;;;2.96;49.75
55687;BME280;41911;52.362;4.978;2023-03-15T01:19:10;101211.21;;;3.01;49.98
55687;BME280;41911;52.362;4.978;2023-03-15T01:19:42;101213.36;;;3.57;49.89
55687;BME280;41911;52.362;4.978;2023-03-15T01:20:13;101213.07;;;3.16;50.08
55687;BME280;41911;52.362;4.978;2023-03-15T01:20:45;101211.84;;;2.90;49.95
55687;BME280;41911;52.362;4.978;2023-03-15T01:21:16;101210.79;;;3.59;50.00
55687;BME280;41911;52.362;4.978;2023-03-15T01:21:48;101211.43;;;3.06;49.65
55687;BME280;41911;52.362;4.978;2023-03-15T01:22:19;101212.01;;;3.06;49.69
55687;BME280;41911;52.362;4.978;2023-03-15T01:22:50;101213.52;;;3.42;49.56
55687;BME280;41911;52.362;4.978;2023-03-15T01:23:21;101211.18;;;3.58;49.74
55687;BME280;41911;52.362;4.978;2023-03-15T01:23:53;101213.13;;;3.73;49.23
55687;BME280;41911;52.362;4.978;2023-03-15T01:24:24;101215.22;;;3.32;49.26
55687;BME280;41911;52.362;4.978;2023-03-15T01:24:55;101216.78;;;3.52;49.03
55687;BME280;41911;52.362;4.978;2023-03-15T01:25:26;101219.57;;;3.58;49.00
55687;BME280;41911;52.362;4.978;2023-03-15T01:25:59;101218.50;;;3.46;49.46
55687;BME280;41911;52.362;4.978;2023-03-15T01:26:30;101219.05;;;3.53;49.17
55687;BME280;41911;52.362;4.978;2023-03-15T01:27:01;101219.01;;;3.02;49.87
55687;BME280;41911;52.362;4.978;2023-03-15T01:27:32;101220.87;;;2.83;49.81
55687;BME280;41911;52.362;4.978;2023-03-15T01:28:03;101220.36;;;3.29;49.74
55687;BME280;41911;52.362;4.978;2023-03-15T01:28:34;101222.00;;;3.54;49.35
55687;BME280;41911;52.362;4.978;2023-03-15T01:29:05;101222.21;;;3.62;49.39
55687;BME280;41911;52.362;4.978;2023-03-15T01:29:36;101222.76;;;3.31;49.34
55687;BME280;41911;52.362;4.978;2023-03-15T01:30:08;101223.76;;;2.63;50.12
55687;BME280;41911;52.362;4.978;2023-03-15T01:30:39;101224.90;;;2.92;50.13
55687;BME280;41911;52.362;4.978;2023-03-15T01:31:16;101228.93;;;2.50;50.69
55687;BME280;41911;52.362;4.978;2023-03-15T01:31:47;101228.08;;;2.49;50.84
55687;BME280;41911;52.362;4.978;2023-03-15T01:32:18;101228.45;;;2.76;50.55
55687;BME280;41911;52.362;4.978;2023-03-15T01:32:49;101232.12;;;2.95;50.16
55687;BME280;41911;52.362;4.978;2023-03-15T01:33:21;101225.80;;;3.03;50.18
55687;BME280;41911;52.362;4.978;2023-03-15T01:33:52;101228.48;;;2.93;50.16
55687;BME280;41911;52.362;4.978;2023-03-15T01:34:23;101230.15;;;2.61;51.01
55687;BME280;41911;52.362;4.978;2023-03-15T01:34:54;101229.82;;;2.28;50.85
55687;BME280;41911;52.362;4.978;2023-03-15T01:35:25;101229.32;;;1.95;51.14
55687;BME280;41911;52.362;4.978;2023-03-15T01:35:58;101230.46;;;2.17;51.14
55687;BME280;41911;52.362;4.978;2023-03-15T01:36:30;101233.81;;;2.24;50.72
55687;BME280;41911;52.362;4.978;2023-03-15T01:37:02;101231.08;;;2.87;50.42
55687;BME280;41911;52.362;4.978;2023-03-15T01:37:33;101232.82;;;2.59;50.71
55687;BME280;41911;52.362;4.978;2023-03-15T01:38:04;101235.90;;;2.77;50.01
55687;BME280;41911;52.362;4.978;2023-03-15T01:38:35;101234.61;;;2.42;50.65
55687;BME280;41911;52.362;4.978;2023-03-15T01:39:06;101237.88;;;2.35;51.37
55687;BME280;41911;52.362;4.978;2023-03-15T01:39:37;101237.13;;;2.25;51.58
55687;BME280;41911;52.362;4.978;2023-03-15T01:40:12;101240.36;;;1.78;52.07
55687;BME280;41911;52.362;4.978;2023-03-15T01:40:44;101240.08;;;2.03;52.08
55687;BME280;41911;52.362;4.978;2023-03-15T01:41:17;101239.66;;;2.32;51.78
55687;BME280;41911;52.362;4.978;2023-03-15T01:41:48;101239.86;;;2.12;51.59
55687;BME280;41911;52.362;4.978;2023-03-15T01:42:19;101244.44;;;2.54;51.51
55687;BME280;41911;52.362;4.978;2023-03-15T01:42:52;101243.64;;;2.32;51.65
55687;BME280;41911;52.362;4.978;2023-03-15T01:43:24;101242.50;;;2.23;51.79
55687;BME280;41911;52.362;4.978;2023-03-15T01:43:56;101243.89;;;2.10;51.64
55687;BME280;41911;52.362;4.978;2023-03-15T01:44:48;101244.03;;;2.38;51.19
55687;BME280;41911;52.362;4.978;2023-03-15T01:46:26;101244.83;;;2.62;51.16
55687;BME280;41911;52.362;4.978;2023-03-15T01:46:57;101247.37;;;2.73;50.58
55687;BME280;41911;52.362;4.978;2023-03-15T01:47:28;101248.54;;;2.86;50.58
55687;BME280;41911;52.362;4.978;2023-03-15T01:47:59;101249.85;;;2.50;50.46
55687;BME280;41911;52.362;4.978;2023-03-15T01:48:34;101248.26;;;2.81;50.34
55687;BME280;41911;52.362;4.978;2023-03-15T01:49:08;101245.68;;;3.15;49.79
55687;BME280;41911;52.362;4.978;2023-03-15T01:49:42;101247.38;;;3.06;49.55
55687;BME280;41911;52.362;4.978;2023-03-15T01:50:14;101246.46;;;3.15;49.75
55687;BME280;41911;52.362;4.978;2023-03-15T01:50:45;101250.34;;;3.00;49.62
55687;BME280;41911;52.362;4.978;2023-03-15T01:51:21;101251.22;;;3.12;49.51
55687;BME280;41911;52.362;4.978;2023-03-15T01:51:57;101250.32;;;3.50;49.30
55687;BME280;41911;52.362;4.978;2023-03-15T01:52:34;101251.58;;;3.27;49.52
55687;BME280;41911;52.362;4.978;2023-03-15T01:53:07;101252.58;;;3.47;49.05
55687;BME280;41911;52.362;4.978;2023-03-15T01:53:42;101256.19;;;3.16;49.08
55687;BME280;41911;52.362;4.978;2023-03-15T01:54:19;101256.75;;;2.94;49.43
55687;BME280;41911;52.362;4.978;2023-03-15T01:54:56;101255.58;;;2.92;49.39
55687;BME280;41911;52.362;4.978;2023-03-15T01:55:28;101257.21;;;2.73;49.60
55687;BME280;41911;52.362;4.978;2023-03-15T01:56:00;101255.37;;;2.77;49.73
55687;BME280;41911;52.362;4.978;2023-03-15T01:56:33;101257.94;;;2.97;49.51
55687;BME280;41911;52.362;4.978;2023-03-15T01:57:07;101260.89;;;2.48;50.09
55687;BME280;41911;52.362;4.978;2023-03-15T01:57:43;101263.47;;;2.57;49.94
55687;BME280;41911;52.362;4.978;2023-03-15T01:58:15;101266.33;;;2.97;49.88
55687;BME280;41911;52.362;4.978;2023-03-15T01:58:47;101262.82;;;2.84;49.39
55687;BME280;41911;52.362;4.978;2023-03-15T01:59:25;101264.87;;;2.91;49.28
55687;BME280;41911;52.362;4.978;2023-03-15T01:59:59;101265.18;;;2.92;49.36
55687;BME280;41911;52.362;4.978;2023-03-15T02:00:32;101267.67;;;3.06;49.42
55687;BME280;41911;52.362;4.978;2023-03-15T02:01:03;101264.43;;;3.21;49.04
55687;BME280;41911;52.362;4.978;2023-03-15T02:01:36;101264.93;;;3.45;49.04
55687;BME280;41911;52.362;4.978;2023-03-15T02:02:10;101266.37;;;2.91;49.05
55687;BME280;41911;52.362;4.978;2023-03-15T02:02:46;101264.80;;;3.36;48.98
55687;BME280;41911;52.362;4.978;2023-03-15T02:03:22;101267.36;;;3.38;48.54
55687;BME280;41911;52.362;4.978;2023-03-15T02:04:00;101264.72;;;3.56;48.48
55687;BME280;41911;52.362;4.978;2023-03-15T02:04:37;101268.29;;;3.28;48.20
55687;BME280;41911;52.362;4.978;2023-03-15T02:05:10;101268.36;;;3.24;48.18
55687;BME280;41911;52.362;4.978;2023-03-15T02:05:46;101268.36;;;3.27;48.30
55687;BME280;41911;52.362;4.978;2023-03-15T02:06:20;101269.57;;;3.74;47.80
55687;BME280;41911;52.362;4.978;2023-03-15T02:06:55;101272.06;;;3.17;47.97
55687;BME280;41911;52.362;4.978;2023-03-15T02:07:29;101271.96;;;3.58;47.38
55687;BME280;41911;52.362;4.978;2023-03-15T02:08:00;101272.02;;;3.57;47.23
55687;BME280;41911;52.362;4.978;2023-03-15T02:08:36;101270.64;;;3.43;47.08
55687;BME280;41911;52.362;4.978;2023-03-15T02:09:09;101271.32;;;3.53;46.90
55687;BME280;41911;52.362;4.978;2023-03-15T02:09:50;101268.31;;;3.33;47.11
55687;BME280;41911;52.362;4.978;2023-03-15T02:10:28;101271.77;;;2.97;47.01
55687;BME280;41911;52.362;4.978;2023-03-15T02:11:02;101270.34;;;3.18;46.48
55687;BME280;41911;52.362;4.978;2023-03-15T02:11:34;101274.80;;;3.47;46.57
55687;BME280;41911;52.362;4.978;2023-03-15T02:12:06;101276.93;;;3.40;46.55
55687;BME280;41911;52.362;4.978;2023-03-15T02:12:41;101274.36;;;3.39;46.53
55687;BME280;41911;52.362;4.978;2023-03-15T02:13:16;101277.34;;;3.30;46.50
55687;BME280;41911;52.362;4.978;2023-03-15T02:13:48;101276.85;;;3.31;46.27
55687;BME280;41911;52.362;4.978;2023-03-15T02:14:20;101276.68;;;3.40;46.25
55687;BME280;41911;52.362;4.978;2023-03-15T02:14:51;101275.90;;;3.62;45.39
55687;BME280;41911;52.362;4.978;2023-03-15T02:15:23;101280.21;;;3.20;46.14
55687;BME280;41911;52.362;4.978;2023-03-15T02:15:55;101280.27;;;3.48;46.02
55687;BME280;41911;52.362;4.978;2023-03-15T02:16:27;101280.25;;;2.90;46.37
55687;BME280;41911;52.362;4.978;2023-03-15T02:16:59;101280.00;;;3.28;45.59
55687;BME280;41911;52.362;4.978;2023-03-15T02:17:34;101281.07;;;3.28;45.56
55687;BME280;41911;52.362;4.978;2023-03-15T02:18:05;101284.96;;;3.57;45.86
55687;BME280;41911;52.362;4.978;2023-03-15T02:18:37;101283.91;;;3.27;46.09
55687;BME280;41911;52.362;4.978;2023-03-15T02:19:23;101284.11;;;3.17;46.20
55687;BME280;41911;52.362;4.978;2023-03-15T02:20:01;101287.07;;;2.90;46.47
55687;BME280;41911;52.362;4.978;2023-03-15T02:20:39;101288.94;;;3.00;46.67
55687;BME280;41911;52.362;4.978;2023-03-15T02:21:23;101289.01;;;3.04;46.61
55687;BME280;41911;52.362;4.978;2023-03-15T02:22:03;101286.57;;;3.10;46.15
55687;BME280;41911;52.362;4.978;2023-03-15T02:22:45;101288.45;;;3.22;46.56
55687;BME280;41911;52.362;4.978;2023-03-15T02:23:18;101285.79;;;3.10;46.47
55687;BME280;41911;52.362;4.978;2023-03-15T02:23:56;101287.67;;;3.11;46.41
55687;BME280;41911;52.362;4.978;2023-03-15T02:24:40;101288.90;;;3.38;45.81
55687;BME280;41911;52.362;4.978;2023-03-15T02:25:24;101291.11;;;3.42;45.87
55687;BME280;41911;52.362;4.978;2023-03-15T02:26:05;101288.07;;;3.31;45.97
55687;BME280;41911;52.362;4.978;2023-03-15T02:26:42;101289.03;;;3.33;46.03
55687;BME280;41911;52.362;4.978;2023-03-15T02:27:22;101291.59;;;3.48;45.79
55687;BME280;41911;52.362;4.978;2023-03-15T02:27:56;101291.96;;;3.13;45.83
55687;BME280;41911;52.362;4.978;2023-03-15T02:28:28;101293.92;;;3.00;46.38
55687;BME280;41911;52.362;4.978;2023-03-15T02:28:59;101291.19;;;3.01;46.35
55687;BME280;41911;52.362;4.978;2023-03-15T02:29:31;101293.34;;;3.06;46.16
55687;BME280;41911;52.362;4.978;2023-03-15T02:30:04;101295.85;;;3.38;45.83
55687;BME280;41911;52.362;4.978;2023-03-15T02:30:35;101295.56;;;3.27;45.91
55687;BME280;41911;52.362;4.978;2023-03-15T02:31:07;101296.40;;;3.23;45.49
55687;BME280;41911;52.362;4.978;2023-03-15T02:31:38;101294.56;;;3.53;45.54
55687;BME280;41911;52.362;4.978;2023-03-15T02:32:09;101296.22;;;3.20;45.52
55687;BME280;41911;52.362;4.978;2023-03-15T02:32:40;101297.99;;;3.27;45.44
55687;BME280;41911;52.362;4.978;2023-03-15T02:33:16;101298.33;;;2.58;45.71
55687;BME280;41911;52.362;4.978;2023-03-15T02:33:50;101304.02;;;2.73;46.31
55687;BME280;41911;52.362;4.978;2023-03-15T02:34:22;101303.12;;;2.57;46.73
55687;BME280;41911;52.362;4.978;2023-03-15T02:34:53;101304.52;;;2.72;46.70
55687;BME280;41911;52.362;4.978;2023-03-15T02:35:25;101304.45;;;2.86;46.65
55687;BME280;41911;52.362;4.978;2023-03-15T02:36:07;101305.18;;;2.97;46.72
55687;BME280;41911;52.362;4.978;2023-03-15T02:36:38;101308.44;;;3.02;46.55
55687;BME280;41911;52.362;4.978;2023-03-15T02:37:09;101306.94;;;2.97;46.53
55687;BME280;41911;52.362;4.978;2023-03-15T02:37:40;101304.73;;;3.67;46.18
55687;BME280;41911;52.362;4.978;2023-03-15T02:38:11;101301.22;;;3.25;45.93
55687;BME280;41911;52.362;4.978;2023-03-15T02:38:42;101303.16;;;2.97;46.11
55687;BME280;41911;52.362;4.978;2023-03-15T02:39:14;101302.78;;;3.20;46.23
55687;BME280;41911;52.362;4.978;2023-03-15T02:39:46;101304.90;;;3.28;46.13
55687;BME280;41911;52.362;4.978;2023-03-15T02:40:20;101301.53;;;3.31;46.04
55687;BME280;41911;52.362;4.978;2023-03-15T02:40:52;101304.66;;;3.50;45.40
55687;BME280;41911;52.362;4.978;2023-03-15T02:41:27;101305.88;;;3.19;45.49
55687;BME280;41911;52.362;4.978;2023-03-15T02:41:59;101306.02;;;3.67;45.20
55687;BME280;41911;52.362;4.978;2023-03-15T02:42:30;101306.11;;;3.51;45.37
55687;BME280;41911;52.362;4.978;2023-03-15T02:43:06;101308.00;;;3.66;45.67
55687;BME280;41911;52.362;4.978;2023-03-15T02:43:40;101308.67;;;3.60;45.74
55687;BME280;41911;52.362;4.978;2023-03-15T02:44:14;101309.86;;;3.28;45.76
55687;BME280;41911;52.362;4.978;2023-03-15T02:44:47;101307.56;;;3.68;45.50
55687;BME280;41911;52.362;4.978;2023-03-15T02:45:19;101309.80;;;3.86;45.15
55687;BME280;41911;52.362;4.978;2023-03-15T02:45:51;101309.95;;;3.20;45.20
55687;BME280;41911;52.362;4.978;2023-03-15T02:46:22;101311.31;;;3.46;44.90
55687;BME280;41911;52.362;4.978;2023-03-15T02:46:58;101310.36;;;3.77;44.74
55687;BME280;41911;52.362;4.978;2023-03-15T02:47:32;101313.79;;;3.41;45.08
55687;BME280;41911;52.362;4.978;2023-03-15T02:48:05;101313.41;;;3.53;45.15
55687;BME280;41911;52.362;4.978;2023-03-15T02:48:37;101315.47;;;3.55;45.26
55687;BME280;41911;52.362;4.978;2023-03-15T02:49:11;101317.48;;;3.20;44.76
55687;BME280;41911;52.362;4.978;2023-03-15T02:49:45;101318.65;;;3.27;45.02
55687;BME280;41911;52.362;4.978;2023-03-15T02:50:18;101318.86;;;3.28;45.00
55687;BME280;41911;52.362;4.978;2023-03-15T02:50:49;101319.94;;;3.64;44.96
55687;BME280;41911;52.362;4.978;2023-03-15T02:51:23;101320.02;;;3.24;45.14
55687;BME280;41911;52.362;4.978;2023-03-15T02:51:54;101321.72;;;3.39;44.84
55687;BME280;41911;52.362;4.978;2023-03-15T02:52:25;101320.34;;;3.29;44.81
55687;BME280;41911;52.362;4.978;2023-03-15T02:52:56;101320.19;;;3.39;44.49
55687;BME280;41911;52.362;4.978;2023-03-15T02:53:28;101321.47;;;3.55;44.65
55687;BME280;41911;52.362;4.978;2023-03-15T02:53:59;101320.16;;;3.33;44.45
55687;BME280;41911;52.362;4.978;2023-03-15T02:54:30;101321.89;;;3.50;44.70
55687;BME280;41911;52.362;4.978;2023-03-15T02:55:01;101323.81;;;3.45;44.70
55687;BME280;41911;52.362;4.978;2023-03-15T02:55:33;101324.64;;;3.39;44.61
55687;BME280;41911;52.362;4.978;2023-03-15T02:56:05;101324.00;;;3.24;44.79
55687;BME280;41911;52.362;4.978;2023-03-15T02:56:36;101325.11;;;3.40;44.10
55687;BME280;41911;52.362;4.978;2023-03-15T02:57:07;101324.19;;;3.56;43.97
55687;BME280;41911;52.362;4.978;2023-03-15T02:57:38;101326.34;;;3.64;44.34
55687;BME280;41911;52.362;4.978;2023-03-15T02:58:09;101326.79;;;3.38;44.27
55687;BME280;41911;52.362;4.978;2023-03-15T02:59:10;101329.65;;;3.39;44.34
55687;BME280;41911;52.362;4.978;2023-03-15T02:59:41;101330.71;;;3.47;44.36
55687;BME280;41911;52.362;4.978;2023-03-15T03:00:12;101332.63;;;3.17;44.45
55687;BME280;41911;52.362;4.978;2023-03-15T03:00:44;101330.95;;;3.05;44.17
55687;BME280;41911;52.362;4.978;2023-03-15T03:01:16;101332.74;;;3.28;44.70
55687;BME280;41911;52.362;4.978;2023-03-15T03:01:47;101332.04;;;3.10;44.44
55687;BME280;41911;52.362;4.978;2023-03-15T03:02:19;101333.47;;;3.75;44.08
55687;BME280;41911;52.362;4.978;2023-03-15T03:02:50;101333.32;;;3.49;43.85
55687;BME280;41911;52.362;4.978;2023-03-15T03:03:21;101331.91;;;3.76;43.98
55687;BME280;41911;52.362;4.978;2023-03-15T03:03:52;101334.09;;;3.17;44.09
55687;BME280;41911;52.362;4.978;2023-03-15T03:04:23;101335.64;;;3.37;44.15
55687;BME280;41911;52.362;4.978;2023-03-15T03:04:54;101334.97;;;3.23;43.68